Time;durP1;ratioP1;P1;durP2;ratioP2;P2;SDS_P1;SDS_P2;PMS_P1;PMS_P2;Temp;Humidity;BMP_temperature;BMP_pressure;BME280_temperature;BME280_humidity;BME280_pressure;Samples;Min_cycle;Max_cycle;Signal;HPM_P1;HPM_P2
2023/01/29 00:01:24;;;;;;;;;;;;;;;3.88;51.80;97517.34;4200032;28;5698;-67
2023/01/29 00:03:27;;;;;;;;;;;;;;;3.89;51.88;97510.31;4200430;28;5682;-67
2023/01/29 00:05:30;;;;;;;;;;;;;;;3.90;51.76;97514.59;4200484;28;5749;-67
2023/01/29 00:07:34;;;;;;;;;;;;;;;3.91;51.72;97511.03;4200029;28;5849;-66
2023/01/29 00:09:39;;;;;;;;;;;;;;;3.89;51.81;97513.78;4200666;28;5709;-66
2023/01/29 00:11:42;;;;;;;;;;;;;;;3.86;51.84;97515.84;4200330;28;5805;-67
2023/01/29 00:13:45;;;;;;;;;;;;;;;3.86;51.83;97514.03;4200458;28;5710;-66
2023/01/29 00:15:54;;;;;;;;;;;;;;;3.91;51.78;97516.25;4200354;28;5706;-67
2023/01/29 00:17:57;;;;;;;;;;;;;;;3.88;51.82;97512.13;4200715;28;5782;-67
2023/01/29 00:20:00;;;;;;;;;;;;;;;3.89;51.80;97524.22;4200272;28;5686;-67
2023/01/29 00:22:03;;;;;;;;;;;;;;;3.87;51.85;97515.69;4200317;28;5693;-67
2023/01/29 00:24:07;;;;;;;;;;;;;;;3.83;51.79;97506.44;4199572;28;5686;-66
2023/01/29 00:26:11;;;;;;;;;;;;;;;3.87;51.88;97513.09;4195970;28;5694;-66
2023/01/29 00:28:14;;;;;;;;;;;;;;;3.88;51.74;97511.28;4199685;28;5705;-66
2023/01/29 00:30:19;;;;;;;;;;;;;;;3.91;51.72;97514.47;4196603;28;5094;-66
2023/01/29 00:32:22;;;;;;;;;;;;;;;3.89;51.72;97510.31;4183789;28;7734;-66
2023/01/29 00:34:25;;;;;;;;;;;;;;;3.89;51.79;97510.31;4186912;28;5728;-66
2023/01/29 00:36:28;;;;;;;;;;;;;;;3.88;51.86;97506.06;4201269;28;5845;-66
2023/01/29 00:38:31;;;;;;;;;;;;;;;3.91;51.72;97498.75;4202406;28;5689;-67
2023/01/29 00:45:15;;;;;;;;;;;;;;;3.93;51.83;97503.84;4195814;28;5703;-66
2023/01/29 00:47:33;;;;;;;;;;;;;;;3.95;51.71;97502.75;4201784;28;5797;-66
2023/01/29 00:49:36;;;;;;;;;;;;;;;3.90;51.72;97504.97;4202147;28;5698;-66
2023/01/29 00:51:39;;;;;;;;;;;;;;;3.89;51.90;97520.78;4200896;28;5832;-66
2023/01/29 00:53:42;;;;;;;;;;;;;;;3.89;51.87;97512.94;4202102;28;5682;-65
2023/01/29 00:55:46;;;;;;;;;;;;;;;3.89;51.83;97510.31;4193859;28;5814;-66
2023/01/29 00:57:49;;;;;;;;;;;;;;;3.87;51.93;97512.25;4197712;28;5698;-66
2023/01/29 00:59:52;;;;;;;;;;;;;;;3.88;51.90;97517.34;4201176;28;5832;-65
2023/01/29 01:04:15;;;;;;;;;;;;;;;3.90;51.81;97522.44;4194274;28;5707;-66
2023/01/29 01:06:17;;;;;;;;;;;;;;;3.92;51.85;97520.53;4201581;28;5714;-66
2023/01/29 01:10:40;;;;;;;;;;;;;;;3.91;51.69;97522.31;4198729;28;5896;-66
2023/01/29 01:12:44;;;;;;;;;;;;;;;3.92;51.77;97517.91;4189796;28;5896;-66
2023/01/29 01:14:48;;;;;;;;;;;;;;;3.92;51.77;97518.72;4201572;28;5804;-66
2023/01/29 01:16:50;;;;;;;;;;;;;;;3.89;51.68;97528.63;4188962;28;5826;-66
2023/01/29 01:18:53;;;;;;;;;;;;;;;3.91;51.88;97527.53;4187612;28;5809;-66
2023/01/29 01:20:58;;;;;;;;;;;;;;;3.93;51.86;97525.63;4199041;28;5766;-67
2023/01/29 01:23:01;;;;;;;;;;;;;;;3.92;51.80;97523.97;4196079;28;5872;-67
2023/01/29 01:25:05;;;;;;;;;;;;;;;3.90;51.71;97527.69;4186858;28;5076;-66
2023/01/29 01:27:08;;;;;;;;;;;;;;;3.91;51.66;97534.56;4192544;28;5777;-66
2023/01/29 01:29:13;;;;;;;;;;;;;;;3.90;51.70;97541.59;4200940;28;5884;-66
2023/01/29 01:31:16;;;;;;;;;;;;;;;3.89;51.63;97539.94;4193448;28;5843;-67
2023/01/29 01:33:19;;;;;;;;;;;;;;;3.90;51.74;97546.00;4194208;28;5718;-66
2023/01/29 01:35:21;;;;;;;;;;;;;;;3.90;51.63;97536.34;4191603;28;5774;-65
2023/01/29 01:37:24;;;;;;;;;;;;;;;3.94;51.64;97545.56;4200719;28;5098;-65
2023/01/29 01:39:27;;;;;;;;;;;;;;;3.96;51.71;97548.06;4200865;28;7953;-65
2023/01/29 01:41:30;;;;;;;;;;;;;;;3.89;51.59;97553.00;4196507;28;5842;-65
2023/01/29 01:43:48;;;;;;;;;;;;;;;3.90;51.64;97540.75;4199592;28;5689;-66
2023/01/29 01:45:52;;;;;;;;;;;;;;;3.89;51.65;97547.78;4199664;28;5706;-67
2023/01/29 01:48:00;;;;;;;;;;;;;;;3.86;51.80;97555.91;4201053;28;5690;-66
2023/01/29 01:50:08;;;;;;;;;;;;;;;3.84;51.89;97556.97;4201331;28;5718;-66
2023/01/29 01:52:13;;;;;;;;;;;;;;;3.84;51.77;97551.75;4200525;28;5797;-66
2023/01/29 01:54:21;;;;;;;;;;;;;;;3.81;51.90;97560.69;4199509;28;6380;-66
2023/01/29 01:56:27;;;;;;;;;;;;;;;3.81;51.77;97563.28;4194657;28;5798;-66
2023/01/29 01:58:34;;;;;;;;;;;;;;;3.81;51.82;97560.69;4193895;28;5804;-66
2023/01/29 02:00:38;;;;;;;;;;;;;;;3.84;51.83;97563.03;4199295;28;5824;-66
2023/01/29 02:09:52;;;;;;;;;;;;;;;3.83;51.88;97571.00;4198521;28;5694;-66
2023/01/29 02:11:55;;;;;;;;;;;;;;;3.82;51.83;97575.41;4199439;28;5959;-66
2023/01/29 02:13:58;;;;;;;;;;;;;;;3.80;52.00;97582.56;4199570;28;5664;-66
2023/01/29 02:16:01;;;;;;;;;;;;;;;3.77;51.92;97580.22;4199484;28;6392;-66
2023/01/29 02:18:05;;;;;;;;;;;;;;;3.72;52.09;97598.06;4198998;28;5698;-67
2023/01/29 02:20:18;;;;;;;;;;;;;;;3.75;51.94;97585.59;4199040;28;5812;-66
2023/01/29 02:22:53;;;;;;;;;;;;;;;3.82;52.06;97574.59;4200464;28;5694;-66
2023/01/29 02:25:11;;;;;;;;;;;;;;;3.87;52.08;97594.19;4201427;28;5802;-68
2023/01/29 02:27:17;;;;;;;;;;;;;;;3.93;52.00;97598.03;4194594;28;5702;-66
2023/01/29 02:29:32;;;;;;;;;;;;;;;3.94;51.96;97610.16;4201662;28;5730;-66
2023/01/29 02:31:41;;;;;;;;;;;;;;;3.98;51.84;97611.56;4201672;28;5677;-66
2023/01/29 02:33:55;;;;;;;;;;;;;;;3.97;51.90;97615.16;4201495;28;5726;-65
2023/01/29 02:36:04;;;;;;;;;;;;;;;3.98;51.87;97622.03;4201416;28;5702;-65
2023/01/29 02:38:16;;;;;;;;;;;;;;;4.01;51.86;97621.75;4195449;28;5808;-65
2023/01/29 02:40:29;;;;;;;;;;;;;;;4.00;51.97;97627.94;4201386;28;5702;-66
2023/01/29 02:42:35;;;;;;;;;;;;;;;3.94;52.00;97626.69;4200873;28;5789;-66
2023/01/29 02:44:43;;;;;;;;;;;;;;;3.91;52.10;97621.72;4201403;28;5780;-65
2023/01/29 02:46:54;;;;;;;;;;;;;;;3.93;52.06;97624.19;4199335;28;5648;-65
2023/01/29 02:49:02;;;;;;;;;;;;;;;3.96;52.13;97637.00;4201208;28;5821;-66
2023/01/29 02:51:07;;;;;;;;;;;;;;;3.92;52.01;97625.97;4201070;28;5702;-66
2023/01/29 02:53:14;;;;;;;;;;;;;;;3.90;52.20;97621.84;4200146;28;5851;-65
2023/01/29 02:55:24;;;;;;;;;;;;;;;3.92;52.18;97633.84;4200514;28;5824;-66
2023/01/29 02:57:29;;;;;;;;;;;;;;;3.98;52.14;97630.72;4201519;28;5697;-65
2023/01/29 02:59:37;;;;;;;;;;;;;;;4.02;52.08;97629.47;4200109;28;5785;-67
2023/01/29 03:01:47;;;;;;;;;;;;;;;4.08;52.08;97634.19;4198409;28;5773;-66
2023/01/29 03:03:53;;;;;;;;;;;;;;;4.05;52.08;97618.72;4199837;28;5765;-71
2023/01/29 03:06:05;;;;;;;;;;;;;;;4.07;52.14;97626.44;4196318;28;5792;-67
2023/01/29 03:08:11;;;;;;;;;;;;;;;4.12;52.05;97633.91;4195227;28;5912;-67
2023/01/29 03:10:18;;;;;;;;;;;;;;;4.08;52.07;97628.97;4192448;28;5700;-69
2023/01/29 03:12:32;;;;;;;;;;;;;;;4.08;52.20;97628.97;4200137;28;5852;-66
2023/01/29 03:16:57;;;;;;;;;;;;;;;4.05;52.13;97634.44;4185639;28;5837;-66
2023/01/29 03:19:05;;;;;;;;;;;;;;;4.02;52.16;97637.31;4192215;28;5694;-66
2023/01/29 03:33:11;;;;;;;;;;;;;;;3.99;52.29;97619.28;4199980;28;5679;-66
2023/01/29 03:35:19;;;;;;;;;;;;;;;4.03;52.26;97628.50;4192422;28;5770;-65
2023/01/29 03:37:29;;;;;;;;;;;;;;;4.07;52.32;97629.88;4191414;28;5544;-65
2023/01/29 03:39:33;;;;;;;;;;;;;;;4.04;52.21;97619.69;4198838;28;7993;-66
2023/01/29 03:41:38;;;;;;;;;;;;;;;4.06;52.07;97628.25;4199280;28;5792;-65
2023/01/29 03:43:51;;;;;;;;;;;;;;;4.07;52.17;97623.84;4197554;28;5690;-66
2023/01/29 03:46:03;;;;;;;;;;;;;;;4.08;52.08;97626.34;4198329;28;6388;-66
2023/01/29 03:48:12;;;;;;;;;;;;;;;4.07;52.13;97621.22;4197823;28;5698;-66
2023/01/29 03:50:30;;;;;;;;;;;;;;;4.09;52.09;97622.75;4188570;28;5693;-65
2023/01/29 03:52:42;;;;;;;;;;;;;;;4.18;52.11;97628.13;4196766;28;5698;-65
2023/01/29 03:54:53;;;;;;;;;;;;;;;4.17;52.09;97631.72;4191069;28;5727;-65
2023/01/29 03:57:02;;;;;;;;;;;;;;;4.21;52.06;97628.72;4199226;28;5781;-65
2023/01/29 03:59:16;;;;;;;;;;;;;;;4.18;51.97;97626.34;4185669;28;5699;-66
2023/01/29 04:01:23;;;;;;;;;;;;;;;4.13;52.10;97630.34;4195455;28;5707;-65
2023/01/29 04:03:34;;;;;;;;;;;;;;;4.08;52.10;97618.50;4188112;28;5678;-66
2023/01/29 04:05:43;;;;;;;;;;;;;;;4.03;52.03;97618.03;4195022;28;5694;-66
2023/01/29 04:07:48;;;;;;;;;;;;;;;4.04;52.27;97622.31;4191876;28;5732;-66
2023/01/29 04:09:53;;;;;;;;;;;;;;;4.09;52.09;97628.00;4199263;28;5835;-66
2023/01/29 04:12:04;;;;;;;;;;;;;;;4.16;52.22;97625.66;4201024;28;5761;-66
2023/01/29 04:14:07;;;;;;;;;;;;;;;4.21;51.97;97617.44;4198206;28;5746;-66
2023/01/29 04:16:17;;;;;;;;;;;;;;;4.23;52.15;97625.97;4202142;28;6594;-66
2023/01/29 04:18:20;;;;;;;;;;;;;;;4.23;51.96;97623.34;4204074;28;5706;-65
2023/01/29 04:20:24;;;;;;;;;;;;;;;4.25;52.00;97624.03;4201773;28;5702;-65
2023/01/29 04:22:32;;;;;;;;;;;;;;;4.25;51.97;97622.25;4197682;28;5072;-66
2023/01/29 04:24:35;;;;;;;;;;;;;;;4.31;51.91;97623.53;4197511;28;7683;-66
2023/01/29 04:26:55;;;;;;;;;;;;;;;4.34;51.97;97623.25;4203700;28;5702;-66
2023/01/29 04:29:16;;;;;;;;;;;;;;;4.34;51.94;97620.63;4198745;28;5663;-65
2023/01/29 04:31:23;;;;;;;;;;;;;;;4.36;51.87;97621.31;4189489;28;5719;-65
2023/01/29 04:33:34;;;;;;;;;;;;;;;4.38;51.84;97627.25;4192961;28;6413;-66
2023/01/29 04:35:52;;;;;;;;;;;;;;;4.32;51.92;97623.38;4197972;28;5785;-66
2023/01/29 04:38:06;;;;;;;;;;;;;;;4.32;51.98;97619.94;4202505;28;5709;-66
2023/01/29 04:40:20;;;;;;;;;;;;;;;4.34;52.03;97621.44;4190827;28;5841;-66
2023/01/29 04:42:31;;;;;;;;;;;;;;;4.44;51.95;97623.28;4201360;28;5928;-66
2023/01/29 04:44:39;;;;;;;;;;;;;;;4.45;51.97;97620.53;4202551;28;5773;-66
2023/01/29 04:46:49;;;;;;;;;;;;;;;4.44;51.89;97618.03;4202541;28;5701;-67
2023/01/29 04:49:03;;;;;;;;;;;;;;;4.47;51.79;97615.16;4198949;28;5694;-66
2023/01/29 04:51:14;;;;;;;;;;;;;;;4.46;51.82;97626.59;4194345;28;5719;-66
2023/01/29 04:53:22;;;;;;;;;;;;;;;4.35;51.92;97627.50;4190521;28;5702;-67
2023/01/29 04:55:32;;;;;;;;;;;;;;;4.26;52.04;97626.53;4203263;28;5717;-65
2023/01/29 04:57:45;;;;;;;;;;;;;;;4.33;52.04;97622.41;4201850;28;5705;-66
2023/01/29 04:59:52;;;;;;;;;;;;;;;4.39;51.93;97621.03;4192806;28;5791;-65
2023/01/29 05:01:55;;;;;;;;;;;;;;;4.49;51.91;97627.13;4195685;28;5969;-65
2023/01/29 05:04:02;;;;;;;;;;;;;;;4.53;51.69;97622.44;4200167;28;5920;-66
2023/01/29 05:06:07;;;;;;;;;;;;;;;4.43;51.75;97621.63;4200452;28;5750;-65
2023/01/29 05:08:15;;;;;;;;;;;;;;;4.40;51.97;97625.31;4195412;28;5678;-66
2023/01/29 05:10:20;;;;;;;;;;;;;;;4.41;51.82;97624.34;4201813;28;5814;-66
2023/01/29 05:12:27;;;;;;;;;;;;;;;4.42;51.93;97626.03;4191039;28;5802;-65
2023/01/29 05:14:33;;;;;;;;;;;;;;;4.48;51.89;97633.34;4197271;28;5697;-65
2023/01/29 05:16:42;;;;;;;;;;;;;;;4.53;51.73;97631.16;4196899;28;5886;-67
2023/01/29 05:18:45;;;;;;;;;;;;;;;4.56;51.89;97632.66;4199051;28;5873;-67
2023/01/29 05:20:50;;;;;;;;;;;;;;;4.50;51.81;97628.78;4201095;28;5698;-67
2023/01/29 05:22:52;;;;;;;;;;;;;;;4.42;51.81;97630.41;4186092;28;5882;-67
2023/01/29 05:24:56;;;;;;;;;;;;;;;4.38;51.87;97635.09;4200907;28;5706;-66
2023/01/29 05:29:20;;;;;;;;;;;;;;;4.46;51.74;97647.53;4188363;28;7797;-65
2023/01/29 05:31:23;;;;;;;;;;;;;;;4.50;51.75;97649.72;4200050;28;5912;-66
2023/01/29 05:33:28;;;;;;;;;;;;;;;4.58;51.66;97649.91;4199963;28;6087;-66
2023/01/29 05:35:31;;;;;;;;;;;;;;;4.59;51.53;97654.16;4194187;28;5859;-66
2023/01/29 05:37:34;;;;;;;;;;;;;;;4.54;51.71;97655.56;4186285;28;6410;-66
2023/01/29 05:39:37;;;;;;;;;;;;;;;4.49;51.62;97658.56;4195487;28;5778;-66
2023/01/29 05:41:41;;;;;;;;;;;;;;;4.46;51.67;97661.44;4201226;28;5694;-66
2023/01/29 05:43:44;;;;;;;;;;;;;;;4.49;51.64;97662.97;4199995;28;5857;-68
2023/01/29 05:45:52;;;;;;;;;;;;;;;4.52;51.69;97667.91;4201220;28;5695;-68
2023/01/29 05:47:56;;;;;;;;;;;;;;;4.50;51.66;97668.06;4186773;28;5736;-68
2023/01/29 05:49:59;;;;;;;;;;;;;;;4.52;51.56;97679.22;4188282;28;5712;-67
2023/01/29 05:52:02;;;;;;;;;;;;;;;4.50;51.45;97689.00;4197165;28;5707;-68
2023/01/29 05:54:05;;;;;;;;;;;;;;;4.45;51.46;97687.75;4189972;28;5694;-67
2023/01/29 05:56:08;;;;;;;;;;;;;;;4.38;51.73;97693.53;4201324;28;5804;-68
2023/01/29 05:58:12;;;;;;;;;;;;;;;4.36;51.59;97699.84;4202375;28;5695;-69
2023/01/29 06:00:16;;;;;;;;;;;;;;;4.35;51.56;97687.72;4198643;28;5773;-67
2023/01/29 06:02:20;;;;;;;;;;;;;;;4.32;51.71;97701.09;4194268;28;6415;-68
2023/01/29 06:04:22;;;;;;;;;;;;;;;4.34;51.62;97712.25;4195904;28;5830;-67
2023/01/29 06:06:25;;;;;;;;;;;;;;;4.34;51.63;97707.84;4197553;28;5738;-68
2023/01/29 06:08:28;;;;;;;;;;;;;;;4.38;51.46;97711.00;4199024;28;6487;-68
2023/01/29 06:10:31;;;;;;;;;;;;;;;4.43;51.58;97716.69;4201751;28;5698;-65
2023/01/29 06:12:33;;;;;;;;;;;;;;;4.47;51.33;97707.63;4200927;28;5694;-66
2023/01/29 06:14:37;;;;;;;;;;;;;;;4.44;51.48;97705.25;4200789;28;5682;-68
2023/01/29 06:16:40;;;;;;;;;;;;;;;4.44;51.40;97717.53;4198786;28;5705;-69
2023/01/29 06:18:43;;;;;;;;;;;;;;;4.39;51.38;97720.53;4199669;28;5694;-67
2023/01/29 06:20:46;;;;;;;;;;;;;;;4.38;51.52;97726.72;4198981;28;5753;-66
2023/01/29 06:22:48;;;;;;;;;;;;;;;4.38;51.47;97724.94;4197052;28;5694;-66
2023/01/29 06:24:51;;;;;;;;;;;;;;;4.31;51.54;97720.38;4198878;28;5803;-68
2023/01/29 06:26:54;;;;;;;;;;;;;;;4.28;51.52;97724.06;4200656;28;5712;-68
2023/01/29 06:28:57;;;;;;;;;;;;;;;4.28;51.53;97728.47;4196879;28;5818;-68
2023/01/29 06:31:02;;;;;;;;;;;;;;;4.27;51.34;97727.63;4191530;28;5686;-67
2023/01/29 06:33:26;;;;;;;;;;;;;;;4.23;51.33;97738.50;4190640;28;5877;-67
2023/01/29 06:35:29;;;;;;;;;;;;;;;4.20;51.37;97744.03;4188362;28;5789;-66
2023/01/29 06:37:32;;;;;;;;;;;;;;;4.20;51.52;97754.50;4200165;28;5876;-68
2023/01/29 06:39:35;;;;;;;;;;;;;;;4.18;51.60;97748.53;4196375;28;5710;-67
2023/01/29 06:41:38;;;;;;;;;;;;;;;4.24;51.35;97754.09;4198671;28;5828;-67
2023/01/29 06:43:44;;;;;;;;;;;;;;;4.24;51.41;97764.56;4187703;28;5728;-66
2023/01/29 06:45:48;;;;;;;;;;;;;;;4.23;51.33;97770.75;4197641;28;5778;-70
2023/01/29 06:47:52;;;;;;;;;;;;;;;4.28;51.22;97765.13;4199178;28;5886;-66
2023/01/29 06:49:55;;;;;;;;;;;;;;;4.27;51.25;97761.66;4190001;28;5747;-67
2023/01/29 06:51:58;;;;;;;;;;;;;;;4.27;51.41;97773.94;4192725;28;5714;-67
2023/01/29 06:54:01;;;;;;;;;;;;;;;4.28;51.41;97770.34;4199687;28;5690;-68
2023/01/29 06:56:04;;;;;;;;;;;;;;;4.33;51.26;97770.81;4186685;28;5723;-67
2023/01/29 06:58:08;;;;;;;;;;;;;;;4.36;51.22;97778.41;4191357;28;6471;-66
2023/01/29 07:00:12;;;;;;;;;;;;;;;4.43;51.27;97770.84;4198710;28;5706;-68
2023/01/29 07:02:15;;;;;;;;;;;;;;;4.46;51.10;97763.56;4196194;28;6389;-66
2023/01/29 07:04:19;;;;;;;;;;;;;;;4.42;51.08;97761.31;4189739;28;5735;-66
2023/01/29 07:06:27;;;;;;;;;;;;;;;4.43;51.08;97774.31;4190745;28;5711;-67
2023/01/29 07:08:30;;;;;;;;;;;;;;;4.46;51.20;97771.41;4197575;28;5686;-66
2023/01/29 07:10:33;;;;;;;;;;;;;;;4.38;51.12;97784.31;4194418;28;5806;-68
2023/01/29 07:12:36;;;;;;;;;;;;;;;4.36;51.35;97783.63;4192447;28;5701;-68
2023/01/29 07:14:39;;;;;;;;;;;;;;;4.45;51.36;97792.50;4197742;28;6027;-68
2023/01/29 07:16:41;;;;;;;;;;;;;;;4.49;51.18;97786.84;4196058;28;5678;-68
2023/01/29 07:18:44;;;;;;;;;;;;;;;4.56;50.94;97780.16;4185657;28;5782;-66
2023/01/29 07:20:48;;;;;;;;;;;;;;;4.59;51.17;97802.63;4198392;28;5686;-66
2023/01/29 07:22:51;;;;;;;;;;;;;;;4.47;51.22;97790.56;4194231;28;5768;-65
2023/01/29 07:24:54;;;;;;;;;;;;;;;4.49;50.98;97781.63;4194952;28;5983;-65
2023/01/29 07:26:57;;;;;;;;;;;;;;;4.52;51.19;97786.59;4200567;28;6365;-65
2023/01/29 07:28:59;;;;;;;;;;;;;;;4.54;51.08;97787.31;4187374;28;5735;-66
2023/01/29 07:31:02;;;;;;;;;;;;;;;4.57;50.93;97780.97;4194978;28;5781;-66
2023/01/29 07:33:07;;;;;;;;;;;;;;;4.55;51.02;97775.88;4198898;28;5820;-65
2023/01/29 07:35:10;;;;;;;;;;;;;;;4.46;50.96;97783.69;4191542;28;5714;-66
2023/01/29 07:37:14;;;;;;;;;;;;;;;4.42;51.14;97787.50;4184341;28;5786;-65
2023/01/29 07:39:17;;;;;;;;;;;;;;;4.45;51.04;97782.84;4186740;28;6406;-66
2023/01/29 07:41:20;;;;;;;;;;;;;;;4.48;51.11;97781.75;4184395;28;5714;-66
2023/01/29 07:43:24;;;;;;;;;;;;;;;4.47;50.92;97772.25;4200049;28;5908;-66
2023/01/29 07:45:27;;;;;;;;;;;;;;;4.44;50.93;97773.34;4190419;28;5844;-65
2023/01/29 07:47:30;;;;;;;;;;;;;;;4.46;50.90;97766.19;4195901;28;5678;-65
2023/01/29 07:49:32;;;;;;;;;;;;;;;4.54;51.02;97761.13;4198178;28;5789;-65
2023/01/29 07:51:35;;;;;;;;;;;;;;;4.61;50.96;97764.03;4199139;28;5768;-66
2023/01/29 07:53:39;;;;;;;;;;;;;;;4.71;50.86;97771.94;4183770;28;5771;-66
2023/01/29 07:55:44;;;;;;;;;;;;;;;4.71;50.65;97769.31;4182869;28;5707;-66
2023/01/29 07:57:47;;;;;;;;;;;;;;;4.72;50.58;97773.56;4184091;28;5707;-66
2023/01/29 07:59:50;;;;;;;;;;;;;;;4.74;50.75;97776.88;4193854;28;7035;-66
2023/01/29 08:01:53;;;;;;;;;;;;;;;4.70;50.80;97776.34;4197947;28;5812;-66
2023/01/29 08:03:57;;;;;;;;;;;;;;;4.76;50.63;97772.38;4185250;28;5727;-66
2023/01/29 08:05:59;;;;;;;;;;;;;;;4.85;50.60;97779.41;4187333;28;5694;-66
2023/01/29 08:08:03;;;;;;;;;;;;;;;4.88;50.46;97773.94;4186568;28;5855;-66
2023/01/29 08:10:11;;;;;;;;;;;;;;;4.93;50.34;97769.94;4187333;28;5828;-65
2023/01/29 08:12:14;;;;;;;;;;;;;;;4.94;50.52;97770.75;4191748;28;5710;-65
2023/01/29 08:14:17;;;;;;;;;;;;;;;4.97;50.55;97775.72;4183741;28;5813;-67
2023/01/29 08:16:20;;;;;;;;;;;;;;;5.04;50.55;97782.09;4187111;28;5708;-65
2023/01/29 08:18:22;;;;;;;;;;;;;;;5.11;50.51;97785.00;4183310;28;6401;-64
2023/01/29 08:20:26;;;;;;;;;;;;;;;5.15;50.43;97781.97;4186566;28;5695;-65
2023/01/29 08:22:28;;;;;;;;;;;;;;;5.20;50.44;97778.94;4188781;28;5786;-69
2023/01/29 08:24:31;;;;;;;;;;;;;;;5.22;50.51;97779.66;4187293;28;5700;-66
2023/01/29 08:26:56;;;;;;;;;;;;;;;5.25;50.44;97788.06;4194859;28;5904;-65
2023/01/29 08:28:59;;;;;;;;;;;;;;;5.27;50.61;97790.56;4189688;28;5810;-65
2023/01/29 08:31:01;;;;;;;;;;;;;;;5.28;50.54;97799.25;4190272;28;5789;-65
2023/01/29 08:33:04;;;;;;;;;;;;;;;5.26;50.42;97789.72;4193507;28;5690;-65
2023/01/29 08:35:08;;;;;;;;;;;;;;;5.24;50.56;97791.66;4196126;28;5103;-65
2023/01/29 08:37:10;;;;;;;;;;;;;;;5.24;50.59;97796.06;4190446;28;7857;-66
2023/01/29 08:39:13;;;;;;;;;;;;;;;5.23;50.71;97790.00;4189299;28;5708;-65
2023/01/29 08:41:16;;;;;;;;;;;;;;;5.25;50.76;97793.31;4192097;28;5771;-65
2023/01/29 08:43:20;;;;;;;;;;;;;;;5.26;50.71;97797.59;4197571;28;5682;-65
2023/01/29 08:45:23;;;;;;;;;;;;;;;5.26;50.76;97794.97;4184767;28;5917;-66
2023/01/29 08:47:25;;;;;;;;;;;;;;;5.31;50.93;97799.78;4190209;28;6436;-66
2023/01/29 08:49:30;;;;;;;;;;;;;;;5.35;50.88;97792.50;4190471;28;5727;-66
2023/01/29 08:51:33;;;;;;;;;;;;;;;5.39;50.79;97804.38;4190435;28;5900;-66
2023/01/29 08:53:35;;;;;;;;;;;;;;;5.43;50.54;97813.63;4190398;28;6460;-66
2023/01/29 08:55:40;;;;;;;;;;;;;;;5.44;50.64;97812.69;4190123;28;5717;-66
2023/01/29 08:57:42;;;;;;;;;;;;;;;5.44;50.68;97812.69;4193675;28;5797;-66
2023/01/29 08:59:46;;;;;;;;;;;;;;;5.43;50.61;97813.63;4187988;28;5728;-66
2023/01/29 09:01:49;;;;;;;;;;;;;;;5.44;50.75;97813.50;4193359;28;5840;-66
2023/01/29 09:03:52;;;;;;;;;;;;;;;5.48;50.61;97817.50;4192923;28;5806;-67
2023/01/29 09:05:54;;;;;;;;;;;;;;;5.48;50.69;97814.06;4199462;28;5710;-64
2023/01/29 09:07:58;;;;;;;;;;;;;;;5.47;50.84;97807.97;4200997;28;5745;-65
2023/01/29 09:10:00;;;;;;;;;;;;;;;5.48;50.80;97811.44;4193426;28;5769;-64
2023/01/29 09:12:04;;;;;;;;;;;;;;;5.50;50.73;97817.38;4193197;28;5090;-66
2023/01/29 09:14:07;;;;;;;;;;;;;;;5.53;50.60;97811.84;4193012;28;5901;-66
2023/01/29 09:16:11;;;;;;;;;;;;;;;5.54;50.58;97814.31;4192712;28;5794;-66
2023/01/29 09:18:14;;;;;;;;;;;;;;;5.51;50.48;97808.53;4193074;28;5784;-66
2023/01/29 09:20:18;;;;;;;;;;;;;;;5.45;50.72;97809.09;4192947;28;5875;-66
2023/01/29 09:22:21;;;;;;;;;;;;;;;5.46;50.51;97819.44;4185050;28;5814;-66
2023/01/29 09:24:24;;;;;;;;;;;;;;;5.48;50.72;97822.75;4193018;28;5867;-66
2023/01/29 09:26:26;;;;;;;;;;;;;;;5.53;50.49;97817.09;4191750;28;5898;-66
2023/01/29 09:28:29;;;;;;;;;;;;;;;5.54;50.42;97816.94;4192342;28;6509;-66
2023/01/29 09:30:33;;;;;;;;;;;;;;;5.53;50.56;97822.31;4201536;28;5789;-66
2023/01/29 09:32:37;;;;;;;;;;;;;;;5.54;50.43;97829.22;4190170;28;5814;-66
2023/01/29 09:34:56;;;;;;;;;;;;;;;5.52;50.35;97825.91;4201343;28;5694;-66
2023/01/29 09:36:59;;;;;;;;;;;;;;;5.52;50.25;97828.53;4193208;28;5826;-66
2023/01/29 09:39:03;;;;;;;;;;;;;;;5.52;50.51;97836.41;4200464;28;5815;-66
2023/01/29 09:41:15;;;;;;;;;;;;;;;5.53;50.39;97832.81;4200839;28;5766;-66
2023/01/29 09:43:20;;;;;;;;;;;;;;;5.56;50.57;97835.19;4193195;28;5806;-66
2023/01/29 09:45:24;;;;;;;;;;;;;;;5.60;50.21;97844.44;4186937;28;5919;-66
2023/01/29 09:47:29;;;;;;;;;;;;;;;5.60;50.20;97838.38;4189228;28;5827;-66
2023/01/29 09:49:40;;;;;;;;;;;;;;;5.59;50.16;97834.91;4188124;28;5702;-66
2023/01/29 09:51:48;;;;;;;;;;;;;;;5.62;50.39;97847.75;4186996;28;5719;-66
2023/01/29 09:53:59;;;;;;;;;;;;;;;5.64;50.43;97847.59;4188833;28;5905;-66
2023/01/29 09:56:05;;;;;;;;;;;;;;;5.66;50.21;97849.13;4184647;28;5709;-66
2023/01/29 09:58:16;;;;;;;;;;;;;;;5.68;50.38;97857.72;4183315;28;5917;-66
2023/01/29 10:00:25;;;;;;;;;;;;;;;5.71;50.27;97862.69;4185222;28;5682;-66
2023/01/29 10:02:56;;;;;;;;;;;;;;;5.71;50.25;97861.84;4190305;28;5894;-66
2023/01/29 10:05:20;;;;;;;;;;;;;;;5.73;50.03;97868.59;4190048;28;5722;-67
2023/01/29 10:08:00;;;;;;;;;;;;;;;5.72;50.08;97866.97;4181915;28;5185;-66
2023/01/29 10:10:23;;;;;;;;;;;;;;;5.72;50.22;97874.00;4185661;28;7734;-67
2023/01/29 10:12:52;;;;;;;;;;;;;;;5.73;50.01;97879.09;4190283;28;5770;-66
2023/01/29 10:15:05;;;;;;;;;;;;;;;5.76;49.95;97884.06;4185946;28;6015;-66
2023/01/29 10:17:19;;;;;;;;;;;;;;;5.76;49.88;97881.44;4183064;28;5726;-65
2023/01/29 10:19:46;;;;;;;;;;;;;;;5.75;49.97;97885.03;4189194;28;5715;-65
2023/01/29 10:22:21;;;;;;;;;;;;;;;5.75;49.92;97885.03;4183019;28;5774;-67
2023/01/29 10:24:36;;;;;;;;;;;;;;;5.75;49.89;97885.03;4184154;28;5731;-66
2023/01/29 10:26:40;;;;;;;;;;;;;;;5.75;49.97;97882.41;4183202;28;5806;-67
2023/01/29 10:28:46;;;;;;;;;;;;;;;5.78;49.80;97883.97;4186516;28;5963;-65
2023/01/29 10:30:50;;;;;;;;;;;;;;;5.80;49.80;97882.84;4192050;28;5773;-65
2023/01/29 10:32:55;;;;;;;;;;;;;;;5.79;49.85;97880.38;4182992;28;5906;-66
2023/01/29 10:35:02;;;;;;;;;;;;;;;5.78;49.70;97884.78;4193614;28;5110;-66
2023/01/29 10:37:17;;;;;;;;;;;;;;;5.78;49.79;97874.28;4184164;28;5715;-66
2023/01/29 10:39:21;;;;;;;;;;;;;;;5.82;49.90;97875.66;4183344;28;5796;-66
2023/01/29 10:41:41;;;;;;;;;;;;;;;5.85;49.66;97880.63;4188117;28;5730;-66
2023/01/29 10:43:55;;;;;;;;;;;;;;;5.88;49.53;97873.44;4184455;28;5829;-66
2023/01/29 10:46:11;;;;;;;;;;;;;;;5.91;49.55;97878.47;4181374;28;5838;-66
2023/01/29 10:48:40;;;;;;;;;;;;;;;5.93;49.43;97873.91;4181276;28;5914;-67
2023/01/29 10:50:50;;;;;;;;;;;;;;;5.95;49.68;97882.47;4186927;28;5787;-66
2023/01/29 10:53:13;;;;;;;;;;;;;;;5.95;49.33;97875.44;4189952;28;5893;-67
2023/01/29 10:55:30;;;;;;;;;;;;;;;5.94;49.48;97878.19;4187856;28;5810;-71
2023/01/29 10:57:54;;;;;;;;;;;;;;;5.94;49.50;97868.53;4193365;28;5841;-74
2023/01/29 11:00:06;;;;;;;;;;;;;;;5.93;49.43;97871.28;4186007;28;5744;-74
2023/01/29 11:02:17;;;;;;;;;;;;;;;5.93;49.66;97877.38;4186852;28;5825;-75
2023/01/29 11:04:20;;;;;;;;;;;;;;;5.96;49.30;97871.84;4188382;28;5970;-67
2023/01/29 11:06:25;;;;;;;;;;;;;;;5.94;49.40;97872.94;4200843;28;5760;-74
2023/01/29 11:08:34;;;;;;;;;;;;;;;5.93;49.37;97872.13;4190816;28;5707;-72
2023/01/29 11:10:43;;;;;;;;;;;;;;;5.95;49.49;97869.34;4183313;28;5933;-69
2023/01/29 11:12:47;;;;;;;;;;;;;;;5.98;49.43;97871.69;4183282;28;5806;-73
2023/01/29 11:14:55;;;;;;;;;;;;;;;5.97;49.22;97870.03;4186001;28;6503;-69
2023/01/29 11:16:58;;;;;;;;;;;;;;;5.94;49.20;97863.28;4183652;28;5874;-66
2023/01/29 11:19:01;;;;;;;;;;;;;;;5.92;49.38;97865.22;4185077;28;5723;-73
2023/01/29 11:21:05;;;;;;;;;;;;;;;5.91;49.33;97862.72;4189702;28;5777;-63
2023/01/29 11:23:25;;;;;;;;;;;;;;;5.92;49.27;97861.75;4186352;28;5822;-64
2023/01/29 11:25:31;;;;;;;;;;;;;;;5.95;49.17;97866.72;4185675;28;5818;-64
2023/01/29 11:27:39;;;;;;;;;;;;;;;5.93;49.39;97860.78;4183307;28;5905;-64
2023/01/29 11:29:44;;;;;;;;;;;;;;;5.97;49.33;97867.41;4183688;28;5771;-64
2023/01/29 11:31:48;;;;;;;;;;;;;;;6.01;49.39;97863.56;4182442;28;5747;-70
2023/01/29 11:33:54;;;;;;;;;;;;;;;6.05;49.25;97860.50;4186807;28;5791;-71
2023/01/29 11:35:57;;;;;;;;;;;;;;;6.04;48.88;97858.84;4187089;28;5722;-67
2023/01/29 11:38:08;;;;;;;;;;;;;;;6.01;49.10;97859.13;4188516;28;5690;-66
2023/01/29 11:40:36;;;;;;;;;;;;;;;6.01;49.07;97860.94;4183938;28;5723;-65
2023/01/29 11:42:39;;;;;;;;;;;;;;;6.05;49.09;97859.69;4195763;28;5678;-66
2023/01/29 11:44:43;;;;;;;;;;;;;;;6.08;49.01;97854.97;4186929;28;5723;-66
2023/01/29 11:46:46;;;;;;;;;;;;;;;6.08;48.85;97851.53;4188179;28;5773;-66
2023/01/29 11:48:53;;;;;;;;;;;;;;;6.11;48.90;97848.59;4184267;28;6089;-74
2023/01/29 11:51:10;;;;;;;;;;;;;;;6.14;48.68;97848.34;4184846;28;6703;-63